aviador You're here:

KALO Decoded Metar

WATERLOO in IA, USA
Report Time2017-12-16 02:54:00
UTC Time2017-12-16 03:41:16
Flight Rules vfr VFR
Wind200° at 08 kt
W.Decomp.*RWY 18: 7.7 kt HW 2.3 kt RCW
RWY 24: 5.9 kt HW 5.5 kt LCW
RWY 12: 1.8 kt HW 7.8 kt RCW
W.Rank200° ranks 16
Current wind is below 200° avg. (9.4)
Visibility9999 m
Phenomena:N/A
Clouds:Broken 110 Hf
Expected CloudBase > 3,200 ft AGL from Temp-Dew spread
Ceiling11,000 ft
Temp02°C (ISA -11)
Dew Point-6°C (56% RH)
AAT-3.6°C
QNH1008 hPa
Density Alt-276 ft
Elevation866 ft
Report Wrong Elevation
Raw Report
KALO 160254Z AUTO 20008KT 10SM BKN110 02/M06 A2977 RMK AO2 SLP091
T00221056 58012=

Extra information for KALO:More info

Metar Taf Metar & Taf Last 4 Metars F.Rules Stats Wind Profile Meteogram Temp Stats Airport Information Weather charts Add Link Nearby VenuesMetar ALERT Operation Metar Decoded Social comments

AIRNAV info for KALO